Main page
METAR-TAF:

METAR-TAF

Airports :

Base Aérea de Armilla

Granada, Spain

latitude: 37-08N, longitude: 003-38-08W, elevation: 700 m

Current weather observation

The report was made 15 hours and 12 minutes ago, at 13:00 UTC
Wind 6 kt from the Northwest, varying between West and North
Temperature 34°C
Humidity 18%
Pressure 1017 hPa
Visibility 10 km or more
no clouds below 1500 m and no cumulonimbus

METAR: LEGA 191300Z 32006KT 260V360 CAVOK 34/06 Q1017

Time: 06:12 (04:12 UTC)

Forecast

The report was made 14 hours and 12 minutes ago, at 14:00 UTC
Forecast valid from 19 at 15 UTC to 19 at 24 UTC
Wind 4 kt from the North/Northwest
Visibility 10 km or more
no clouds below 1500 m and no cumulonimbus
Becoming
from 19 at 15 UTC to 19 at 16 UTC
Wind 10 kt from the South
Becoming
from 19 at 19 UTC to 19 at 21 UTC
Wind 2 kt from variable directions

TAF: LEGA 191400Z 1915/1924 33004KT CAVOK BECMG 1915/1916 18010KT BECMG 1919/1921 VRB02KT

Weather observations and forecasts of more than 4000 airports (METAR and TAF reports).

The available stations are represented by yellow and red dots on the map.

Hover mouse over dot to see the name of the station.

Then click to see weather observations and forecasts.

To change the map : click on the green buttons with a black cross to zoom in, on the green button with a dash to zoom out, or on the green arrows for adjacent maps.


METAR-TAF: